createdAt,value
2023-05-09T00:01:31.751Z,10.86
2023-05-09T00:04:00.302Z,10.93
2023-05-09T00:06:29.904Z,10.92
2023-05-09T00:08:58.002Z,10.98
2023-05-09T00:11:26.165Z,10.99
2023-05-09T00:13:54.284Z,10.95
2023-05-09T00:16:24.281Z,10.94
2023-05-09T00:18:53.006Z,10.87
2023-05-09T00:21:21.272Z,10.94
2023-05-09T00:23:50.857Z,10.94
2023-05-09T00:26:19.028Z,10.89
2023-05-09T00:28:47.091Z,10.91
2023-05-09T00:31:16.774Z,10.92
2023-05-09T00:33:45.152Z,10.92
2023-05-09T00:36:13.237Z,10.93
2023-05-09T00:38:41.485Z,10.96
2023-05-09T00:41:11.031Z,10.98
2023-05-09T00:43:39.182Z,10.93
2023-05-09T00:46:07.500Z,10.95
2023-05-09T00:48:35.910Z,10.97
2023-05-09T00:51:05.006Z,11.01
2023-05-09T00:53:33.814Z,11.01
2023-05-09T00:56:01.991Z,10.90
2023-05-09T00:58:31.708Z,10.85
2023-05-09T01:01:01.869Z,10.91
2023-05-09T01:03:30.676Z,10.96
2023-05-09T01:06:06.722Z,10.89
2023-05-09T01:08:45.662Z,10.89
2023-05-09T01:11:22.289Z,10.90
2023-05-09T01:14:02.500Z,10.78
2023-05-09T01:16:37.684Z,10.75
2023-05-09T01:19:21.038Z,10.71
2023-05-09T01:21:51.093Z,10.69
2023-05-09T01:24:54.734Z,10.71
2023-05-09T01:27:26.807Z,10.66
2023-05-09T01:29:59.181Z,10.66
2023-05-09T01:32:29.512Z,10.74
2023-05-09T01:35:02.614Z,10.62
2023-05-09T01:37:34.194Z,10.63
2023-05-09T01:40:11.660Z,10.56
2023-05-09T01:42:44.261Z,10.51
2023-05-09T01:45:16.898Z,10.50
2023-05-09T01:47:46.046Z,10.48
2023-05-09T01:50:14.414Z,10.41
2023-05-09T01:52:44.655Z,10.42
2023-05-09T01:55:13.770Z,10.39
2023-05-09T01:57:43.314Z,10.42
2023-05-09T02:00:15.030Z,10.44
2023-05-09T02:02:44.676Z,10.42
2023-05-09T02:05:13.759Z,10.39
2023-05-09T02:07:43.396Z,10.44
2023-05-09T02:10:13.509Z,10.45
2023-05-09T02:12:41.651Z,10.43
2023-05-09T02:15:10.777Z,10.47
2023-05-09T02:17:40.264Z,10.54
2023-05-09T02:20:13.435Z,10.45
2023-05-09T02:22:43.183Z,10.44
2023-05-09T02:25:15.260Z,10.41
2023-05-09T02:27:47.192Z,10.45
2023-05-09T02:30:20.783Z,10.40
2023-05-09T02:32:53.301Z,10.39
2023-05-09T02:35:22.947Z,10.47
2023-05-09T02:37:51.154Z,10.45
2023-05-09T02:40:20.532Z,10.50
2023-05-09T02:42:48.653Z,10.56
2023-05-09T02:45:17.245Z,10.62
2023-05-09T02:47:45.708Z,10.54
2023-05-09T02:50:15.391Z,10.59
2023-05-09T02:52:43.418Z,10.62
2023-05-09T02:55:12.391Z,10.52
2023-05-09T02:57:40.817Z,10.52
2023-05-09T03:00:10.529Z,10.57
2023-05-09T03:02:39.682Z,10.51
2023-05-09T03:05:08.802Z,10.51
2023-05-09T03:07:38.305Z,10.52
2023-05-09T03:10:07.708Z,10.58
2023-05-09T03:12:35.893Z,10.55
2023-05-09T03:15:04.367Z,10.60
2023-05-09T03:17:32.556Z,10.62
2023-05-09T03:20:03.228Z,10.60
2023-05-09T03:22:32.283Z,10.48
2023-05-09T03:25:02.841Z,10.57
2023-05-09T03:27:31.544Z,10.53
2023-05-09T03:29:59.735Z,10.49
2023-05-09T03:32:28.528Z,10.55
2023-05-09T03:34:57.319Z,10.53
2023-05-09T03:37:27.088Z,10.52
2023-05-09T03:39:55.397Z,10.54
2023-05-09T03:42:24.904Z,10.59
2023-05-09T03:44:53.142Z,10.53
2023-05-09T03:47:21.961Z,10.54
2023-05-09T03:49:50.235Z,10.55
2023-05-09T03:52:18.432Z,10.64
2023-05-09T03:54:46.616Z,10.59
2023-05-09T03:57:14.593Z,10.66
2023-05-09T03:59:44.420Z,10.62
2023-05-09T04:02:12.965Z,10.56
2023-05-09T04:04:41.277Z,10.58
2023-05-09T04:07:09.466Z,10.52
2023-05-09T04:09:37.947Z,10.60
2023-05-09T04:12:06.677Z,10.54
2023-05-09T04:14:34.755Z,10.54
2023-05-09T04:17:04.859Z,10.54
2023-05-09T04:19:33.420Z,10.63
2023-05-09T04:22:01.572Z,10.61
2023-05-09T04:24:29.570Z,10.59
2023-05-09T04:26:58.594Z,10.63
2023-05-09T04:29:27.277Z,10.58
2023-05-09T04:31:55.920Z,10.58
2023-05-09T04:34:29.860Z,10.57
2023-05-09T04:36:58.221Z,10.51
2023-05-09T04:39:26.825Z,10.54
2023-05-09T04:41:55.702Z,10.60
2023-05-09T04:44:25.232Z,10.58
2023-05-09T04:46:55.267Z,10.69
2023-05-09T04:49:23.588Z,10.70
2023-05-09T04:51:56.772Z,10.59
2023-05-09T04:54:25.061Z,10.68
2023-05-09T04:56:56.041Z,10.65
2023-05-09T04:59:28.621Z,10.66
2023-05-09T05:01:56.985Z,10.67
2023-05-09T05:04:26.232Z,10.58
2023-05-09T05:06:55.835Z,10.50
2023-05-09T05:09:24.386Z,10.60
2023-05-09T05:12:00.733Z,10.58
2023-05-09T05:14:31.229Z,10.52
2023-05-09T05:16:59.568Z,10.56
2023-05-09T05:19:29.070Z,10.66
2023-05-09T05:21:59.064Z,10.60
2023-05-09T05:24:27.415Z,10.59
2023-05-09T05:26:55.697Z,10.56
2023-05-09T05:29:25.171Z,10.66
2023-05-09T05:31:53.569Z,10.62
2023-05-09T05:34:24.008Z,10.66
2023-05-09T05:36:52.446Z,10.68
2023-05-09T05:39:22.224Z,10.67
2023-05-09T05:41:53.370Z,10.55
2023-05-09T05:44:21.521Z,10.50
2023-05-09T05:46:49.764Z,10.60
2023-05-09T05:49:17.936Z,10.55
2023-05-09T05:51:46.079Z,10.43
2023-05-09T05:54:14.820Z,10.40
2023-05-09T05:56:45.422Z,10.39
2023-05-09T05:59:13.760Z,10.43
2023-05-09T06:01:42.158Z,10.51
2023-05-09T06:04:10.999Z,10.49
2023-05-09T06:06:39.439Z,10.64
2023-05-09T06:09:07.855Z,10.56
2023-05-09T06:11:36.832Z,10.58
2023-05-09T06:14:08.827Z,10.50
2023-05-09T06:16:37.714Z,10.47
2023-05-09T06:19:07.852Z,10.51
2023-05-09T06:21:36.692Z,10.57
2023-05-09T06:24:11.779Z,10.60
2023-05-09T06:26:40.742Z,10.58
2023-05-09T06:29:10.962Z,10.59
2023-05-09T06:31:42.581Z,10.62
2023-05-09T06:34:11.909Z,10.70
2023-05-09T06:36:40.172Z,10.66
2023-05-09T06:39:08.607Z,10.76
2023-05-09T06:41:37.495Z,10.79
2023-05-09T06:44:11.713Z,10.64
2023-05-09T06:46:40.360Z,10.66
2023-05-09T06:49:08.843Z,10.61
2023-05-09T06:51:37.299Z,10.65
2023-05-09T06:54:05.642Z,10.72
2023-05-09T06:56:38.342Z,10.75
2023-05-09T06:59:11.515Z,10.82
2023-05-09T07:01:43.612Z,10.80
2023-05-09T07:04:14.443Z,10.68
2023-05-09T07:06:44.294Z,10.74
2023-05-09T07:09:15.448Z,10.84
2023-05-09T07:11:44.481Z,10.80
2023-05-09T07:14:13.084Z,10.82
2023-05-09T07:16:43.473Z,10.85
2023-05-09T07:19:13.517Z,10.86
2023-05-09T07:21:46.748Z,10.85
2023-05-09T07:24:22.011Z,10.85
2023-05-09T07:26:50.785Z,11.00
2023-05-09T07:29:20.840Z,10.96
2023-05-09T07:31:51.853Z,11.00
2023-05-09T07:34:20.934Z,10.89
2023-05-09T07:36:49.459Z,11.03
2023-05-09T07:39:19.399Z,11.07
2023-05-09T07:41:48.735Z,11.02
2023-05-09T07:44:24.026Z,10.93
2023-05-09T07:46:56.501Z,10.89
2023-05-09T07:49:25.048Z,11.05
2023-05-09T07:51:54.001Z,11.02
2023-05-09T07:54:22.110Z,11.10
2023-05-09T07:56:51.494Z,11.06
2023-05-09T07:59:20.400Z,11.10
2023-05-09T08:01:49.081Z,11.08
2023-05-09T08:04:19.210Z,11.16
2023-05-09T08:06:47.558Z,11.08
2023-05-09T08:09:16.598Z,11.20
2023-05-09T08:11:50.372Z,11.15
2023-05-09T08:14:18.964Z,11.30
2023-05-09T08:16:47.921Z,11.32
2023-05-09T08:19:17.065Z,11.31
2023-05-09T08:21:47.071Z,11.33
2023-05-09T08:24:15.512Z,11.41
2023-05-09T08:26:44.195Z,11.39
2023-05-09T08:29:12.694Z,11.47
2023-05-09T08:31:42.029Z,11.51
2023-05-09T08:34:10.353Z,11.41
2023-05-09T08:36:41.930Z,11.46
2023-05-09T08:39:11.475Z,11.48
2023-05-09T08:41:40.978Z,11.53
2023-05-09T08:44:09.645Z,11.58
2023-05-09T08:46:44.279Z,11.54
2023-05-09T08:49:13.447Z,11.54
2023-05-09T08:51:42.182Z,11.50
2023-05-09T08:54:12.329Z,11.48
2023-05-09T08:56:41.544Z,11.48
2023-05-09T08:59:10.338Z,11.40
2023-05-09T09:01:38.511Z,11.33
2023-05-09T09:04:08.258Z,11.48
2023-05-09T09:06:40.719Z,11.42
2023-05-09T09:09:13.869Z,11.48
2023-05-09T09:11:48.307Z,11.45
2023-05-09T09:14:27.288Z,11.47
2023-05-09T09:17:02.756Z,11.61
2023-05-09T09:19:37.498Z,11.61
2023-05-09T09:22:07.023Z,11.67
2023-05-09T09:24:38.287Z,11.54
2023-05-09T09:27:09.686Z,11.52
2023-05-09T09:29:40.130Z,11.65
2023-05-09T09:32:09.093Z,11.68
2023-05-09T09:34:37.700Z,11.67
2023-05-09T09:37:09.029Z,11.69
2023-05-09T09:39:39.799Z,11.69
2023-05-09T09:42:18.269Z,11.82
2023-05-09T09:44:46.568Z,11.96
2023-05-09T09:47:15.381Z,12.14
2023-05-09T09:49:48.724Z,12.34
2023-05-09T09:52:25.688Z,12.89
2023-05-09T09:54:59.030Z,12.93
2023-05-09T09:57:47.110Z,12.93
2023-05-09T10:00:18.495Z,12.78
2023-05-09T10:02:52.297Z,12.50
2023-05-09T10:05:22.866Z,12.61
2023-05-09T10:07:59.571Z,12.48
2023-05-09T10:10:30.700Z,12.50
2023-05-09T10:13:04.345Z,12.65
2023-05-09T10:15:49.140Z,12.52
2023-05-09T10:18:27.182Z,12.53
2023-05-09T10:20:57.739Z,12.37
2023-05-09T10:23:29.668Z,12.37
2023-05-09T10:26:08.820Z,12.28
2023-05-09T10:28:41.673Z,12.08
2023-05-09T10:31:16.700Z,12.41
2023-05-09T10:33:50.117Z,12.56
2023-05-09T10:36:22.040Z,12.50
2023-05-09T10:38:51.827Z,12.28
2023-05-09T10:41:23.894Z,12.20
2023-05-09T10:43:58.581Z,12.21
2023-05-09T10:46:28.491Z,12.41
2023-05-09T10:48:57.785Z,12.32
2023-05-09T10:51:27.803Z,12.36
2023-05-09T10:53:58.647Z,12.43
2023-05-09T10:56:32.031Z,12.56
2023-05-09T10:59:01.722Z,12.45
2023-05-09T11:01:35.010Z,12.58
2023-05-09T11:04:11.726Z,12.61
2023-05-09T11:06:51.534Z,12.71
2023-05-09T11:09:35.949Z,12.48
2023-05-09T11:12:17.501Z,12.84
2023-05-09T11:14:54.120Z,12.73
2023-05-09T11:17:32.655Z,12.91
2023-05-09T11:20:05.837Z,13.05
2023-05-09T11:22:41.573Z,13.18
2023-05-09T11:25:14.101Z,13.23
2023-05-09T11:27:48.068Z,13.48
2023-05-09T11:30:17.793Z,13.42
2023-05-09T11:32:49.720Z,13.49
2023-05-09T11:35:21.589Z,13.75
2023-05-09T11:37:56.191Z,14.20
2023-05-09T11:40:25.550Z,14.70
2023-05-09T11:42:58.673Z,14.91
2023-05-09T11:45:33.475Z,14.34
2023-05-09T11:48:03.662Z,14.01
2023-05-09T11:50:32.065Z,14.39
2023-05-09T11:53:00.273Z,14.68
2023-05-09T11:55:30.321Z,14.77
2023-05-09T11:58:00.750Z,14.43
2023-05-09T12:00:29.626Z,14.06
2023-05-09T12:02:57.987Z,14.08
2023-05-09T12:05:27.202Z,13.88
2023-05-09T12:07:58.603Z,13.69
2023-05-09T12:10:27.350Z,13.65
2023-05-09T12:12:57.552Z,13.51
2023-05-09T12:15:28.655Z,13.25
2023-05-09T12:18:07.042Z,13.18
2023-05-09T12:20:44.202Z,13.15
2023-05-09T12:23:14.909Z,13.03
2023-05-09T12:25:49.720Z,13.06
2023-05-09T12:28:19.294Z,13.13
2023-05-09T12:30:49.167Z,13.04
2023-05-09T12:33:17.987Z,12.96
2023-05-09T12:35:48.625Z,12.91
2023-05-09T12:38:22.662Z,13.39
2023-05-09T12:41:03.406Z,13.77
2023-05-09T12:43:33.428Z,13.83
2023-05-09T12:46:08.895Z,13.75
2023-05-09T12:48:39.811Z,13.57
2023-05-09T12:51:08.843Z,13.81
2023-05-09T12:53:41.080Z,13.84
2023-05-09T12:56:15.777Z,13.67
2023-05-09T12:58:57.214Z,13.80
2023-05-09T13:01:30.082Z,13.77
2023-05-09T13:04:04.093Z,14.17
2023-05-09T13:06:32.571Z,14.17
2023-05-09T13:09:02.421Z,13.97
2023-05-09T13:11:31.250Z,13.97
2023-05-09T13:14:00.173Z,13.94
2023-05-09T13:16:30.500Z,14.13
2023-05-09T13:18:58.704Z,14.15
2023-05-09T13:21:27.506Z,13.82
2023-05-09T13:23:57.748Z,13.81
2023-05-09T13:26:27.609Z,13.90
2023-05-09T13:28:56.135Z,14.11
2023-05-09T13:31:25.167Z,14.24
2023-05-09T13:33:55.867Z,14.38
2023-05-09T13:36:24.435Z,14.40
2023-05-09T13:38:53.124Z,14.25
2023-05-09T13:41:23.837Z,13.93
2023-05-09T13:43:52.086Z,13.71
2023-05-09T13:46:20.668Z,13.42
2023-05-09T13:48:49.145Z,13.36
2023-05-09T13:51:19.171Z,13.23
2023-05-09T13:53:47.760Z,13.05
2023-05-09T13:56:16.045Z,13.26
2023-05-09T13:58:44.310Z,13.16
2023-05-09T14:01:13.100Z,13.07
2023-05-09T14:03:41.899Z,13.10
2023-05-09T14:06:13.392Z,12.93
2023-05-09T14:08:43.729Z,12.95
2023-05-09T14:11:12.290Z,12.86
2023-05-09T14:13:40.454Z,12.89
2023-05-09T14:16:09.125Z,12.91
2023-05-09T14:18:37.533Z,12.95
2023-05-09T14:21:06.639Z,13.00
2023-05-09T14:23:34.989Z,12.99
2023-05-09T14:26:05.132Z,13.01
2023-05-09T14:28:33.278Z,12.91
2023-05-09T14:31:03.107Z,12.97
2023-05-09T14:33:31.475Z,12.99
2023-05-09T14:36:01.390Z,12.92
2023-05-09T14:38:30.279Z,12.90
2023-05-09T14:40:58.837Z,12.87
2023-05-09T14:43:28.725Z,12.93
2023-05-09T14:45:57.322Z,12.83
2023-05-09T14:48:25.499Z,12.81
2023-05-09T14:50:57.089Z,12.85
2023-05-09T14:53:27.702Z,12.81
2023-05-09T14:55:56.351Z,12.85
2023-05-09T14:58:25.136Z,12.83
2023-05-09T15:00:54.962Z,12.79
2023-05-09T15:03:23.699Z,12.82
2023-05-09T15:05:55.531Z,12.87
2023-05-09T15:08:23.846Z,12.91
2023-05-09T15:10:52.345Z,12.82
2023-05-09T15:13:21.118Z,12.87
2023-05-09T15:15:51.328Z,12.78
2023-05-09T15:18:23.677Z,12.86
2023-05-09T15:20:52.603Z,12.92
2023-05-09T15:23:20.945Z,13.06
2023-05-09T15:25:49.445Z,13.00
2023-05-09T15:28:18.028Z,12.71
2023-05-09T15:30:46.335Z,12.64
2023-05-09T15:33:14.595Z,12.42
2023-05-09T15:35:50.278Z,12.31
2023-05-09T15:38:18.440Z,12.26
2023-05-09T15:40:46.505Z,12.31
2023-05-09T15:43:14.686Z,12.38
2023-05-09T15:45:45.853Z,12.35
2023-05-09T15:48:14.425Z,12.29
2023-05-09T15:50:45.922Z,12.46
2023-05-09T15:53:17.078Z,12.65
2023-05-09T15:55:45.692Z,12.63
2023-05-09T15:58:17.050Z,12.69
2023-05-09T16:00:45.646Z,12.71
2023-05-09T16:03:21.475Z,12.72
2023-05-09T16:05:52.419Z,12.70
2023-05-09T16:08:22.999Z,12.76
2023-05-09T16:10:52.299Z,12.75
2023-05-09T16:13:21.545Z,12.72
2023-05-09T16:15:51.145Z,12.56
2023-05-09T16:18:19.464Z,12.26
2023-05-09T16:20:48.136Z,12.18
2023-05-09T16:23:19.250Z,12.14
2023-05-09T16:25:49.983Z,12.14
2023-05-09T16:28:19.456Z,12.07
2023-05-09T16:30:47.763Z,12.13
2023-05-09T16:33:16.535Z,12.18
2023-05-09T16:35:44.710Z,12.16
2023-05-09T16:38:14.992Z,12.23
2023-05-09T16:40:44.581Z,12.21
2023-05-09T16:43:12.632Z,12.26
2023-05-09T16:45:40.823Z,12.25
2023-05-09T16:48:09.189Z,12.21
2023-05-09T16:50:38.142Z,12.23
2023-05-09T16:53:06.386Z,12.27
2023-05-09T16:55:34.710Z,12.23
2023-05-09T16:58:08.128Z,12.26
2023-05-09T17:00:37.196Z,12.21
2023-05-09T17:03:06.087Z,12.21
2023-05-09T17:05:34.629Z,12.20
2023-05-09T17:08:03.485Z,12.27
2023-05-09T17:10:31.666Z,12.16
2023-05-09T17:13:00.640Z,12.07
2023-05-09T17:15:31.320Z,12.08
2023-05-09T17:17:59.477Z,11.86
2023-05-09T17:20:28.995Z,11.69
2023-05-09T17:22:58.360Z,11.54
2023-05-09T17:25:26.655Z,11.53
2023-05-09T17:27:55.758Z,11.54
2023-05-09T17:30:26.430Z,11.51
2023-05-09T17:32:56.715Z,11.63
2023-05-09T17:35:26.113Z,11.76
2023-05-09T17:37:54.636Z,11.64
2023-05-09T17:40:23.196Z,11.70
2023-05-09T17:42:51.639Z,11.63
2023-05-09T17:45:21.122Z,11.75
2023-05-09T17:47:49.897Z,11.67
2023-05-09T17:50:21.636Z,11.70
2023-05-09T17:52:51.046Z,11.73
2023-05-09T17:55:19.483Z,11.74
2023-05-09T17:57:47.815Z,11.71
2023-05-09T18:00:23.865Z,11.67
2023-05-09T18:02:52.326Z,11.66
2023-05-09T18:05:26.085Z,11.68
2023-05-09T18:07:55.069Z,11.69
2023-05-09T18:10:23.823Z,11.64
2023-05-09T18:12:52.272Z,11.60
2023-05-09T18:15:21.413Z,11.52
2023-05-09T18:17:49.936Z,11.48
2023-05-09T18:20:20.573Z,11.47
2023-05-09T18:22:54.417Z,11.44
2023-05-09T18:25:22.874Z,11.44
2023-05-09T18:27:51.299Z,11.42
2023-05-09T18:30:21.985Z,11.33
2023-05-09T18:32:50.076Z,11.36
2023-05-09T18:35:18.212Z,11.28
2023-05-09T18:37:46.385Z,11.41
2023-05-09T18:40:16.402Z,11.46
2023-05-09T18:42:44.917Z,11.37
2023-05-09T18:45:14.687Z,11.44
2023-05-09T18:47:42.977Z,11.47
2023-05-09T18:50:13.692Z,11.55
2023-05-09T18:52:44.560Z,11.64
2023-05-09T18:55:14.975Z,11.59
2023-05-09T18:57:44.823Z,11.63
2023-05-09T19:00:15.125Z,11.51
2023-05-09T19:02:43.920Z,11.48
2023-05-09T19:05:12.843Z,11.41
2023-05-09T19:07:43.828Z,11.36
2023-05-09T19:10:13.430Z,11.31
2023-05-09T19:12:41.975Z,11.34
2023-05-09T19:15:15.474Z,11.30
2023-05-09T19:17:44.115Z,11.46
2023-05-09T19:20:15.246Z,11.49
2023-05-09T19:22:48.306Z,11.46
2023-05-09T19:25:20.736Z,11.35
2023-05-09T19:27:53.438Z,11.50
2023-05-09T19:30:23.647Z,11.48
2023-05-09T19:32:52.425Z,11.46
2023-05-09T19:35:22.794Z,11.51
2023-05-09T19:37:51.304Z,11.41
2023-05-09T19:40:20.585Z,11.33
2023-05-09T19:42:49.197Z,11.31
2023-05-09T19:45:17.828Z,11.39
2023-05-09T19:47:48.937Z,11.47
2023-05-09T19:50:17.940Z,11.43
2023-05-09T19:52:47.086Z,11.27
2023-05-09T19:55:16.076Z,11.22
2023-05-09T19:57:44.424Z,11.15
2023-05-09T20:00:14.397Z,11.17
2023-05-09T20:02:43.394Z,11.11
2023-05-09T20:05:13.105Z,11.26
2023-05-09T20:07:41.531Z,11.22
2023-05-09T20:10:18.293Z,11.21
2023-05-09T20:12:47.394Z,11.21
2023-05-09T20:15:15.656Z,11.22
2023-05-09T20:17:44.900Z,11.28
2023-05-09T20:20:16.723Z,11.15
2023-05-09T20:22:45.078Z,11.16
2023-05-09T20:25:13.813Z,11.06
2023-05-09T20:27:44.490Z,11.04
2023-05-09T20:30:16.056Z,11.06
2023-05-09T20:32:45.427Z,10.98
2023-05-09T20:35:15.909Z,11.01
2023-05-09T20:37:47.407Z,11.01
2023-05-09T20:40:15.954Z,11.03
2023-05-09T20:42:44.389Z,10.97
2023-05-09T20:45:14.107Z,11.06
2023-05-09T20:47:43.477Z,11.04
2023-05-09T20:50:12.939Z,11.02
2023-05-09T20:52:42.918Z,11.03
2023-05-09T20:55:11.911Z,10.99
2023-05-09T20:57:40.575Z,10.99
2023-05-09T21:00:10.267Z,11.01
2023-05-09T21:02:38.644Z,10.94
2023-05-09T21:05:07.602Z,10.97
2023-05-09T21:07:35.955Z,10.94
2023-05-09T21:10:08.661Z,10.87
2023-05-09T21:12:37.929Z,10.78
2023-05-09T21:15:07.171Z,10.86
2023-05-09T21:17:35.585Z,10.80
2023-05-09T21:20:03.781Z,10.70
2023-05-09T21:22:33.119Z,10.61
2023-05-09T21:25:01.379Z,10.67
2023-05-09T21:27:37.608Z,10.66
2023-05-09T21:30:08.886Z,10.64
2023-05-09T21:32:37.368Z,10.68
2023-05-09T21:35:11.252Z,10.73
2023-05-09T21:37:39.473Z,10.74
2023-05-09T21:40:10.498Z,10.57
2023-05-09T21:42:41.236Z,10.56
2023-05-09T21:45:10.648Z,10.58
2023-05-09T21:47:40.139Z,10.54
2023-05-09T21:50:09.793Z,10.50
2023-05-09T21:52:38.094Z,10.61
2023-05-09T21:55:06.842Z,10.46
2023-05-09T21:57:34.992Z,10.51
2023-05-09T22:00:05.795Z,10.51
2023-05-09T22:02:35.456Z,10.43
2023-05-09T22:05:03.694Z,10.47
2023-05-09T22:07:31.876Z,10.43
2023-05-09T22:10:00.215Z,10.38
2023-05-09T22:12:28.820Z,10.37
2023-05-09T22:14:57.107Z,10.41
2023-05-09T22:17:26.893Z,10.36
2023-05-09T22:19:55.572Z,10.38
2023-05-09T22:22:24.705Z,10.31
2023-05-09T22:24:53.091Z,10.35
2023-05-09T22:27:21.203Z,10.33
2023-05-09T22:29:49.761Z,10.32
2023-05-09T22:32:17.975Z,10.31
2023-05-09T22:34:49.566Z,10.27
2023-05-09T22:37:17.766Z,10.19
2023-05-09T22:39:46.114Z,10.21
2023-05-09T22:42:14.915Z,10.28
2023-05-09T22:44:43.446Z,10.20
2023-05-09T22:47:12.499Z,10.13
2023-05-09T22:49:40.787Z,10.10
2023-05-09T22:52:10.493Z,10.04
2023-05-09T22:54:38.697Z,10.07
2023-05-09T22:57:07.907Z,10.15
2023-05-09T22:59:37.033Z,10.05
2023-05-09T23:02:06.581Z,10.14
2023-05-09T23:04:34.952Z,10.14
2023-05-09T23:07:03.165Z,10.13
2023-05-09T23:09:33.412Z,10.09
2023-05-09T23:12:03.105Z,10.07
2023-05-09T23:14:32.223Z,10.10
2023-05-09T23:17:00.894Z,10.08
2023-05-09T23:19:29.670Z,10.03
2023-05-09T23:21:58.681Z,10.09
2023-05-09T23:24:27.400Z,10.00
2023-05-09T23:26:58.087Z,9.94
2023-05-09T23:29:26.380Z,9.95
2023-05-09T23:31:54.626Z,9.96
2023-05-09T23:34:22.785Z,9.92
2023-05-09T23:36:51.200Z,9.83
2023-05-09T23:39:19.608Z,9.86
2023-05-09T23:41:48.241Z,9.82
2023-05-09T23:44:18.018Z,9.85
2023-05-09T23:46:46.409Z,9.98
2023-05-09T23:49:14.787Z,9.92
2023-05-09T23:51:43.189Z,9.96
2023-05-09T23:54:12.079Z,9.88
2023-05-09T23:56:40.830Z,9.89
2023-05-09T23:59:09.647Z,9.92
